Auburn, Michigan
Current Conditions -  °F | °C
As of 7:53 AM on Thursday 30 Oct 2014 (Local Time) from KMBS Reporting Station
Overcast Overcast  
Wind Chill: 32°   Ceiling: 4100
Heat Index: 36°   Visibility: 10mi
Dew Point: 33°   Wind: 5mph
Humidity: 89%   Direction: 240°WSW
Pressure: 30.13"   Gusts: NA
Location:  43.6°N, 84.07°W
Report Text: KMBS 301153Z 24004KT 10SM OVC041 02/01 A3013 RMK AO2 SLP207 T00220006 10033 20011 53003
Loading
Personal Weather Stations






























Interactive Weather Map
Tropical Storm Tracking
New forecast layout! Learn more

10-Day Weather Forecast

Advertisements
Track Severe Weather on mobile